sensor_id;sensor_type;location;lat;lon;timestamp;temperature;humidity
33699;DHT22;20032;52.436;13.312;2022-11-03T00:02:19;6.50;99.90
33699;DHT22;20032;52.436;13.312;2022-11-03T00:04:45;6.50;99.90
33699;DHT22;20032;52.436;13.312;2022-11-03T00:07:10;6.60;99.90
33699;DHT22;20032;52.436;13.312;2022-11-03T00:09:36;6.50;99.90
33699;DHT22;20032;52.436;13.312;2022-11-03T00:12:01;6.50;99.90
33699;DHT22;20032;52.436;13.312;2022-11-03T00:14:27;6.50;99.90
33699;DHT22;20032;52.436;13.312;2022-11-03T00:16:52;6.50;99.90
33699;DHT22;20032;52.436;13.312;2022-11-03T00:19:17;6.50;99.90
33699;DHT22;20032;52.436;13.312;2022-11-03T00:21:43;6.40;99.90
33699;DHT22;20032;52.436;13.312;2022-11-03T00:24:09;6.30;99.90
33699;DHT22;20032;52.436;13.312;2022-11-03T00:26:34;6.20;99.90
33699;DHT22;20032;52.436;13.312;2022-11-03T00:29:04;6.10;99.90
33699;DHT22;20032;52.436;13.312;2022-11-03T00:31:31;6.00;99.90
33699;DHT22;20032;52.436;13.312;2022-11-03T00:33:57;6.20;99.90
33699;DHT22;20032;52.436;13.312;2022-11-03T00:36:23;6.20;99.90
33699;DHT22;20032;52.436;13.312;2022-11-03T00:38:49;6.20;99.90
33699;DHT22;20032;52.436;13.312;2022-11-03T00:41:15;6.20;99.90
33699;DHT22;20032;52.436;13.312;2022-11-03T00:43:41;6.40;99.90
33699;DHT22;20032;52.436;13.312;2022-11-03T00:46:07;6.20;99.90
33699;DHT22;20032;52.436;13.312;2022-11-03T00:48:34;6.30;99.90
33699;DHT22;20032;52.436;13.312;2022-11-03T00:51:01;6.20;99.90
33699;DHT22;20032;52.436;13.312;2022-11-03T00:53:27;6.20;99.90
33699;DHT22;20032;52.436;13.312;2022-11-03T00:55:53;6.40;99.90
33699;DHT22;20032;52.436;13.312;2022-11-03T00:58:19;6.30;99.90
33699;DHT22;20032;52.436;13.312;2022-11-03T01:00:44;6.30;99.90
33699;DHT22;20032;52.436;13.312;2022-11-03T01:03:10;6.40;99.90
33699;DHT22;20032;52.436;13.312;2022-11-03T01:05:43;6.40;99.90
33699;DHT22;20032;52.436;13.312;2022-11-03T01:08:32;6.40;99.90
33699;DHT22;20032;52.436;13.312;2022-11-03T01:11:14;6.40;99.90
33699;DHT22;20032;52.436;13.312;2022-11-03T01:14:00;6.30;99.90
33699;DHT22;20032;52.436;13.312;2022-11-03T01:16:26;6.40;99.90
33699;DHT22;20032;52.436;13.312;2022-11-03T01:18:51;6.40;99.90
33699;DHT22;20032;52.436;13.312;2022-11-03T01:21:17;6.40;99.90
33699;DHT22;20032;52.436;13.312;2022-11-03T01:23:43;6.40;99.90
33699;DHT22;20032;52.436;13.312;2022-11-03T01:26:09;6.40;99.90
33699;DHT22;20032;52.436;13.312;2022-11-03T01:28:35;6.50;99.90
33699;DHT22;20032;52.436;13.312;2022-11-03T01:31:09;6.50;99.90
33699;DHT22;20032;52.436;13.312;2022-11-03T01:33:36;6.40;99.90
33699;DHT22;20032;52.436;13.312;2022-11-03T01:36:01;6.40;99.90
33699;DHT22;20032;52.436;13.312;2022-11-03T01:38:30;6.50;99.90
33699;DHT22;20032;52.436;13.312;2022-11-03T01:40:55;6.60;99.90
33699;DHT22;20032;52.436;13.312;2022-11-03T01:43:21;6.60;99.90
33699;DHT22;20032;52.436;13.312;2022-11-03T01:45:48;6.60;99.90
33699;DHT22;20032;52.436;13.312;2022-11-03T01:48:15;6.50;99.90
33699;DHT22;20032;52.436;13.312;2022-11-03T01:50:42;6.50;99.90
33699;DHT22;20032;52.436;13.312;2022-11-03T01:53:09;6.50;99.90
33699;DHT22;20032;52.436;13.312;2022-11-03T01:55:35;6.50;99.90
33699;DHT22;20032;52.436;13.312;2022-11-03T01:58:06;6.30;99.90
33699;DHT22;20032;52.436;13.312;2022-11-03T02:00:32;6.30;99.90
33699;DHT22;20032;52.436;13.312;2022-11-03T02:02:58;6.20;99.90
33699;DHT22;20032;52.436;13.312;2022-11-03T02:05:24;6.20;99.90
33699;DHT22;20032;52.436;13.312;2022-11-03T02:07:52;6.20;99.90
33699;DHT22;20032;52.436;13.312;2022-11-03T02:10:20;6.20;99.90
33699;DHT22;20032;52.436;13.312;2022-11-03T02:12:46;6.20;99.90
33699;DHT22;20032;52.436;13.312;2022-11-03T02:15:12;6.20;99.90
33699;DHT22;20032;52.436;13.312;2022-11-03T02:17:39;6.10;99.90
33699;DHT22;20032;52.436;13.312;2022-11-03T02:20:06;6.10;99.90
33699;DHT22;20032;52.436;13.312;2022-11-03T02:22:36;6.10;99.90
33699;DHT22;20032;52.436;13.312;2022-11-03T02:27:31;6.10;99.90
33699;DHT22;20032;52.436;13.312;2022-11-03T02:29:56;6.10;99.90
33699;DHT22;20032;52.436;13.312;2022-11-03T02:32:24;6.00;99.90
33699;DHT22;20032;52.436;13.312;2022-11-03T02:34:53;6.10;99.90
33699;DHT22;20032;52.436;13.312;2022-11-03T02:37:20;6.10;99.90
33699;DHT22;20032;52.436;13.312;2022-11-03T02:39:48;6.10;99.90
33699;DHT22;20032;52.436;13.312;2022-11-03T02:42:15;6.30;99.90
33699;DHT22;20032;52.436;13.312;2022-11-03T02:44:42;6.30;99.90
33699;DHT22;20032;52.436;13.312;2022-11-03T02:47:09;6.40;99.90
33699;DHT22;20032;52.436;13.312;2022-11-03T02:49:39;6.40;99.90
33699;DHT22;20032;52.436;13.312;2022-11-03T02:52:05;6.60;99.90
33699;DHT22;20032;52.436;13.312;2022-11-03T02:54:33;6.60;99.90
33699;DHT22;20032;52.436;13.312;2022-11-03T02:57:01;6.60;99.90
33699;DHT22;20032;52.436;13.312;2022-11-03T02:59:31;6.60;99.90
33699;DHT22;20032;52.436;13.312;2022-11-03T03:02:02;6.70;99.90
33699;DHT22;20032;52.436;13.312;2022-11-03T03:04:29;6.70;99.90
33699;DHT22;20032;52.436;13.312;2022-11-03T03:06:58;6.70;99.90
33699;DHT22;20032;52.436;13.312;2022-11-03T03:09:27;6.60;99.90
33699;DHT22;20032;52.436;13.312;2022-11-03T03:11:54;6.60;99.90
33699;DHT22;20032;52.436;13.312;2022-11-03T03:14:22;6.50;99.90
33699;DHT22;20032;52.436;13.312;2022-11-03T03:16:58;6.50;99.90
33699;DHT22;20032;52.436;13.312;2022-11-03T03:19:28;6.40;99.90
33699;DHT22;20032;52.436;13.312;2022-11-03T03:21:56;6.50;99.90
33699;DHT22;20032;52.436;13.312;2022-11-03T03:24:25;6.60;99.90
33699;DHT22;20032;52.436;13.312;2022-11-03T03:26:52;6.60;99.90
33699;DHT22;20032;52.436;13.312;2022-11-03T03:29:26;6.70;99.90
33699;DHT22;20032;52.436;13.312;2022-11-03T03:31:54;6.70;99.90
33699;DHT22;20032;52.436;13.312;2022-11-03T03:34:20;6.70;99.90
33699;DHT22;20032;52.436;13.312;2022-11-03T03:36:47;6.70;99.90
33699;DHT22;20032;52.436;13.312;2022-11-03T03:39:13;6.70;99.90
33699;DHT22;20032;52.436;13.312;2022-11-03T03:41:39;6.80;99.90
33699;DHT22;20032;52.436;13.312;2022-11-03T03:44:05;6.90;99.90
33699;DHT22;20032;52.436;13.312;2022-11-03T03:46:33;7.10;99.90
33699;DHT22;20032;52.436;13.312;2022-11-03T03:49:00;7.10;99.90
33699;DHT22;20032;52.436;13.312;2022-11-03T03:51:25;7.10;99.90
33699;DHT22;20032;52.436;13.312;2022-11-03T03:53:52;7.10;99.90
33699;DHT22;20032;52.436;13.312;2022-11-03T03:56:24;7.00;99.90
33699;DHT22;20032;52.436;13.312;2022-11-03T03:58:50;6.90;99.90
33699;DHT22;20032;52.436;13.312;2022-11-03T04:01:15;6.80;99.90
33699;DHT22;20032;52.436;13.312;2022-11-03T04:03:40;6.70;99.90
33699;DHT22;20032;52.436;13.312;2022-11-03T04:06:06;6.80;99.90
33699;DHT22;20032;52.436;13.312;2022-11-03T04:08:32;6.70;99.90
33699;DHT22;20032;52.436;13.312;2022-11-03T04:10:57;6.70;99.90
33699;DHT22;20032;52.436;13.312;2022-11-03T04:13:43;6.50;99.90
33699;DHT22;20032;52.436;13.312;2022-11-03T04:16:28;6.50;99.90
33699;DHT22;20032;52.436;13.312;2022-11-03T04:19:13;6.50;99.90
33699;DHT22;20032;52.436;13.312;2022-11-03T04:21:59;6.40;99.90
33699;DHT22;20032;52.436;13.312;2022-11-03T04:24:45;6.30;99.90
33699;DHT22;20032;52.436;13.312;2022-11-03T04:27:15;6.30;99.90
33699;DHT22;20032;52.436;13.312;2022-11-03T04:29:42;6.30;99.90
33699;DHT22;20032;52.436;13.312;2022-11-03T04:32:09;6.30;99.90
33699;DHT22;20032;52.436;13.312;2022-11-03T04:34:37;6.30;99.90
33699;DHT22;20032;52.436;13.312;2022-11-03T04:37:04;6.30;99.90
33699;DHT22;20032;52.436;13.312;2022-11-03T04:39:30;6.30;99.90
33699;DHT22;20032;52.436;13.312;2022-11-03T04:41:55;6.20;99.90
33699;DHT22;20032;52.436;13.312;2022-11-03T04:44:21;6.20;99.90
33699;DHT22;20032;52.436;13.312;2022-11-03T04:46:46;6.20;99.90
33699;DHT22;20032;52.436;13.312;2022-11-03T04:49:13;6.20;99.90
33699;DHT22;20032;52.436;13.312;2022-11-03T04:51:40;6.20;99.90
33699;DHT22;20032;52.436;13.312;2022-11-03T04:54:12;6.20;99.90
33699;DHT22;20032;52.436;13.312;2022-11-03T04:56:38;6.20;99.90
33699;DHT22;20032;52.436;13.312;2022-11-03T04:59:04;6.20;99.90
33699;DHT22;20032;52.436;13.312;2022-11-03T05:01:33;6.10;99.90
33699;DHT22;20032;52.436;13.312;2022-11-03T05:03:58;6.10;99.90
33699;DHT22;20032;52.436;13.312;2022-11-03T05:06:25;6.10;99.90
33699;DHT22;20032;52.436;13.312;2022-11-03T05:08:52;6.10;99.90
33699;DHT22;20032;52.436;13.312;2022-11-03T05:11:20;6.00;99.90
33699;DHT22;20032;52.436;13.312;2022-11-03T05:13:49;6.00;99.90
33699;DHT22;20032;52.436;13.312;2022-11-03T05:16:15;6.00;99.90
33699;DHT22;20032;52.436;13.312;2022-11-03T05:18:41;6.00;99.90
33699;DHT22;20032;52.436;13.312;2022-11-03T05:21:09;5.90;99.90
33699;DHT22;20032;52.436;13.312;2022-11-03T05:23:37;5.90;99.90
33699;DHT22;20032;52.436;13.312;2022-11-03T05:26:03;5.90;99.90
33699;DHT22;20032;52.436;13.312;2022-11-03T05:28:31;5.80;99.90
33699;DHT22;20032;52.436;13.312;2022-11-03T05:30:57;5.80;99.90
33699;DHT22;20032;52.436;13.312;2022-11-03T05:33:25;5.80;99.90
33699;DHT22;20032;52.436;13.312;2022-11-03T05:35:51;5.70;99.90
33699;DHT22;20032;52.436;13.312;2022-11-03T05:38:18;5.70;99.90
33699;DHT22;20032;52.436;13.312;2022-11-03T05:40:44;5.60;99.90
33699;DHT22;20032;52.436;13.312;2022-11-03T05:43:10;5.70;99.90
33699;DHT22;20032;52.436;13.312;2022-11-03T05:45:37;5.70;99.90
33699;DHT22;20032;52.436;13.312;2022-11-03T05:48:05;5.60;99.90
33699;DHT22;20032;52.436;13.312;2022-11-03T05:50:35;5.60;99.90
33699;DHT22;20032;52.436;13.312;2022-11-03T05:53:03;5.50;99.90
33699;DHT22;20032;52.436;13.312;2022-11-03T05:55:31;5.50;99.90
33699;DHT22;20032;52.436;13.312;2022-11-03T05:57:59;5.60;99.90
33699;DHT22;20032;52.436;13.312;2022-11-03T06:00:27;5.60;99.90
33699;DHT22;20032;52.436;13.312;2022-11-03T06:02:53;5.50;99.90
33699;DHT22;20032;52.436;13.312;2022-11-03T06:05:20;5.50;99.90
33699;DHT22;20032;52.436;13.312;2022-11-03T06:07:46;5.50;99.90
33699;DHT22;20032;52.436;13.312;2022-11-03T06:10:20;5.50;99.90
33699;DHT22;20032;52.436;13.312;2022-11-03T06:12:47;5.50;99.90
33699;DHT22;20032;52.436;13.312;2022-11-03T06:15:21;5.60;99.90
33699;DHT22;20032;52.436;13.312;2022-11-03T06:17:48;5.60;99.90
33699;DHT22;20032;52.436;13.312;2022-11-03T06:20:15;5.60;99.90
33699;DHT22;20032;52.436;13.312;2022-11-03T06:22:42;5.60;99.90
33699;DHT22;20032;52.436;13.312;2022-11-03T06:25:12;5.70;99.90
33699;DHT22;20032;52.436;13.312;2022-11-03T06:27:39;5.70;99.90
33699;DHT22;20032;52.436;13.312;2022-11-03T06:30:20;5.50;99.90
33699;DHT22;20032;52.436;13.312;2022-11-03T06:32:48;5.50;99.90
33699;DHT22;20032;52.436;13.312;2022-11-03T06:35:13;5.40;99.90
33699;DHT22;20032;52.436;13.312;2022-11-03T06:37:39;5.50;99.90
33699;DHT22;20032;52.436;13.312;2022-11-03T06:42:35;5.60;99.90
33699;DHT22;20032;52.436;13.312;2022-11-03T06:45:10;5.60;99.90
33699;DHT22;20032;52.436;13.312;2022-11-03T06:47:37;5.60;99.90
33699;DHT22;20032;52.436;13.312;2022-11-03T06:50:06;5.60;99.90
33699;DHT22;20032;52.436;13.312;2022-11-03T06:52:42;5.70;99.90
33699;DHT22;20032;52.436;13.312;2022-11-03T06:57:37;5.70;99.90
33699;DHT22;20032;52.436;13.312;2022-11-03T07:00:19;5.60;99.90
33699;DHT22;20032;52.436;13.312;2022-11-03T07:03:47;5.60;99.90
33699;DHT22;20032;52.436;13.312;2022-11-03T07:05:32;5.60;99.90
33699;DHT22;20032;52.436;13.312;2022-11-03T07:07:59;5.60;99.90
33699;DHT22;20032;52.436;13.312;2022-11-03T07:10:25;5.70;99.90
33699;DHT22;20032;52.436;13.312;2022-11-03T07:12:51;5.80;99.90
33699;DHT22;20032;52.436;13.312;2022-11-03T07:15:19;5.90;99.90
33699;DHT22;20032;52.436;13.312;2022-11-03T07:17:47;5.90;99.90
33699;DHT22;20032;52.436;13.312;2022-11-03T07:20:13;5.90;99.90
33699;DHT22;20032;52.436;13.312;2022-11-03T07:22:40;6.00;99.90
33699;DHT22;20032;52.436;13.312;2022-11-03T07:25:08;6.20;99.90
33699;DHT22;20032;52.436;13.312;2022-11-03T07:27:38;6.30;99.90
33699;DHT22;20032;52.436;13.312;2022-11-03T07:30:11;6.30;99.90
33699;DHT22;20032;52.436;13.312;2022-11-03T07:32:38;6.30;99.90
33699;DHT22;20032;52.436;13.312;2022-11-03T07:35:08;6.40;99.90
33699;DHT22;20032;52.436;13.312;2022-11-03T07:37:39;6.50;99.90
33699;DHT22;20032;52.436;13.312;2022-11-03T07:40:10;6.80;99.90
33699;DHT22;20032;52.436;13.312;2022-11-03T07:42:36;6.80;99.90
33699;DHT22;20032;52.436;13.312;2022-11-03T07:45:01;7.10;99.90
33699;DHT22;20032;52.436;13.312;2022-11-03T07:47:47;7.20;99.90
33699;DHT22;20032;52.436;13.312;2022-11-03T07:50:13;7.20;99.90
33699;DHT22;20032;52.436;13.312;2022-11-03T07:52:39;7.30;99.90
33699;DHT22;20032;52.436;13.312;2022-11-03T07:55:04;7.30;99.90
33699;DHT22;20032;52.436;13.312;2022-11-03T07:57:34;7.50;99.90
33699;DHT22;20032;52.436;13.312;2022-11-03T08:00:03;7.50;99.90
33699;DHT22;20032;52.436;13.312;2022-11-03T08:02:33;7.60;99.90
33699;DHT22;20032;52.436;13.312;2022-11-03T08:04:59;7.80;99.90
33699;DHT22;20032;52.436;13.312;2022-11-03T08:07:25;7.90;99.90
33699;DHT22;20032;52.436;13.312;2022-11-03T08:09:52;7.90;99.90
33699;DHT22;20032;52.436;13.312;2022-11-03T08:12:17;7.80;99.90
33699;DHT22;20032;52.436;13.312;2022-11-03T08:14:43;7.80;99.90
33699;DHT22;20032;52.436;13.312;2022-11-03T08:17:08;7.80;99.90
33699;DHT22;20032;52.436;13.312;2022-11-03T08:19:34;7.70;99.90
33699;DHT22;20032;52.436;13.312;2022-11-03T08:21:59;7.60;99.90
33699;DHT22;20032;52.436;13.312;2022-11-03T08:24:24;7.70;99.90
33699;DHT22;20032;52.436;13.312;2022-11-03T08:26:50;7.80;99.90
33699;DHT22;20032;52.436;13.312;2022-11-03T08:29:15;7.90;99.90
33699;DHT22;20032;52.436;13.312;2022-11-03T08:31:42;8.00;99.90
33699;DHT22;20032;52.436;13.312;2022-11-03T08:34:07;8.10;99.90
33699;DHT22;20032;52.436;13.312;2022-11-03T08:36:33;8.10;99.90
33699;DHT22;20032;52.436;13.312;2022-11-03T08:38:58;8.00;99.90
33699;DHT22;20032;52.436;13.312;2022-11-03T08:41:23;8.10;99.90
33699;DHT22;20032;52.436;13.312;2022-11-03T08:43:49;8.10;99.90
33699;DHT22;20032;52.436;13.312;2022-11-03T08:46:14;8.30;99.90
33699;DHT22;20032;52.436;13.312;2022-11-03T08:48:40;8.50;99.90
33699;DHT22;20032;52.436;13.312;2022-11-03T08:51:05;8.60;99.90
33699;DHT22;20032;52.436;13.312;2022-11-03T08:53:32;8.70;99.90
33699;DHT22;20032;52.436;13.312;2022-11-03T08:55:58;8.70;99.90
33699;DHT22;20032;52.436;13.312;2022-11-03T08:58:24;8.90;99.90
33699;DHT22;20032;52.436;13.312;2022-11-03T09:00:50;9.10;99.90
33699;DHT22;20032;52.436;13.312;2022-11-03T09:03:15;9.20;99.90
33699;DHT22;20032;52.436;13.312;2022-11-03T09:05:41;9.50;99.90
33699;DHT22;20032;52.436;13.312;2022-11-03T09:08:06;9.70;99.90
33699;DHT22;20032;52.436;13.312;2022-11-03T09:10:32;9.90;99.90
33699;DHT22;20032;52.436;13.312;2022-11-03T09:12:57;10.20;99.90
33699;DHT22;20032;52.436;13.312;2022-11-03T09:15:23;10.30;99.90
33699;DHT22;20032;52.436;13.312;2022-11-03T09:17:48;10.40;99.90
33699;DHT22;20032;52.436;13.312;2022-11-03T09:20:14;10.50;99.90
33699;DHT22;20032;52.436;13.312;2022-11-03T09:22:39;10.70;99.90
33699;DHT22;20032;52.436;13.312;2022-11-03T09:25:05;10.60;99.90
33699;DHT22;20032;52.436;13.312;2022-11-03T09:27:31;10.60;99.90
33699;DHT22;20032;52.436;13.312;2022-11-03T09:29:56;10.80;99.90
33699;DHT22;20032;52.436;13.312;2022-11-03T09:32:21;10.70;99.90
33699;DHT22;20032;52.436;13.312;2022-11-03T09:34:47;10.90;99.90
33699;DHT22;20032;52.436;13.312;2022-11-03T09:37:12;11.00;99.90
33699;DHT22;20032;52.436;13.312;2022-11-03T09:39:38;11.20;99.90
33699;DHT22;20032;52.436;13.312;2022-11-03T09:42:03;11.20;99.90
33699;DHT22;20032;52.436;13.312;2022-11-03T09:44:31;11.20;99.90
33699;DHT22;20032;52.436;13.312;2022-11-03T09:46:57;11.30;99.90
33699;DHT22;20032;52.436;13.312;2022-11-03T09:49:23;11.50;99.90
33699;DHT22;20032;52.436;13.312;2022-11-03T09:51:48;11.60;99.90
33699;DHT22;20032;52.436;13.312;2022-11-03T09:54:14;11.60;99.90
33699;DHT22;20032;52.436;13.312;2022-11-03T09:56:42;11.70;99.90
33699;DHT22;20032;52.436;13.312;2022-11-03T09:59:15;11.90;99.90
33699;DHT22;20032;52.436;13.312;2022-11-03T10:01:41;11.90;99.90
33699;DHT22;20032;52.436;13.312;2022-11-03T10:04:08;11.90;99.90
33699;DHT22;20032;52.436;13.312;2022-11-03T10:06:33;11.90;99.90
33699;DHT22;20032;52.436;13.312;2022-11-03T10:08:59;11.90;99.90
33699;DHT22;20032;52.436;13.312;2022-11-03T10:11:24;12.00;99.90
33699;DHT22;20032;52.436;13.312;2022-11-03T10:13:51;12.10;99.90
33699;DHT22;20032;52.436;13.312;2022-11-03T10:16:18;12.30;99.90
33699;DHT22;20032;52.436;13.312;2022-11-03T10:18:44;12.40;99.90
33699;DHT22;20032;52.436;13.312;2022-11-03T10:21:18;12.40;99.90
33699;DHT22;20032;52.436;13.312;2022-11-03T10:23:43;12.50;99.90
33699;DHT22;20032;52.436;13.312;2022-11-03T10:26:10;12.60;99.90
33699;DHT22;20032;52.436;13.312;2022-11-03T10:28:36;12.80;99.90
33699;DHT22;20032;52.436;13.312;2022-11-03T10:31:03;12.60;99.90
33699;DHT22;20032;52.436;13.312;2022-11-03T10:35:59;12.60;99.90
33699;DHT22;20032;52.436;13.312;2022-11-03T10:38:26;12.60;99.90
33699;DHT22;20032;52.436;13.312;2022-11-03T10:40:52;12.70;99.90
33699;DHT22;20032;52.436;13.312;2022-11-03T10:43:17;12.70;99.90
33699;DHT22;20032;52.436;13.312;2022-11-03T10:45:42;12.60;99.90
33699;DHT22;20032;52.436;13.312;2022-11-03T10:48:08;12.60;99.90
33699;DHT22;20032;52.436;13.312;2022-11-03T10:50:34;12.60;99.90
33699;DHT22;20032;52.436;13.312;2022-11-03T10:52:59;12.70;99.90
33699;DHT22;20032;52.436;13.312;2022-11-03T10:55:25;12.60;99.90
33699;DHT22;20032;52.436;13.312;2022-11-03T10:57:52;12.60;99.90
33699;DHT22;20032;52.436;13.312;2022-11-03T11:00:19;12.50;99.90
33699;DHT22;20032;52.436;13.312;2022-11-03T11:02:46;12.60;99.90
33699;DHT22;20032;52.436;13.312;2022-11-03T11:05:13;12.50;99.90
33699;DHT22;20032;52.436;13.312;2022-11-03T11:07:39;12.50;99.90
33699;DHT22;20032;52.436;13.312;2022-11-03T11:10:06;12.50;99.90
33699;DHT22;20032;52.436;13.312;2022-11-03T11:12:32;12.50;99.90
33699;DHT22;20032;52.436;13.312;2022-11-03T11:14:59;12.50;99.90
33699;DHT22;20032;52.436;13.312;2022-11-03T11:17:56;12.50;99.90
33699;DHT22;20032;52.436;13.312;2022-11-03T11:20:18;12.40;99.90
33699;DHT22;20032;52.436;13.312;2022-11-03T11:22:52;12.40;99.90
33699;DHT22;20032;52.436;13.312;2022-11-03T11:25:17;12.40;99.90
33699;DHT22;20032;52.436;13.312;2022-11-03T11:37:37;12.40;99.90
33699;DHT22;20032;52.436;13.312;2022-11-03T11:40:08;12.40;99.90
33699;DHT22;20032;52.436;13.312;2022-11-03T11:42:35;12.50;99.90
33699;DHT22;20032;52.436;13.312;2022-11-03T11:46:19;12.50;99.90
33699;DHT22;20032;52.436;13.312;2022-11-03T11:48:13;12.50;99.90
33699;DHT22;20032;52.436;13.312;2022-11-03T11:50:40;12.40;99.90
33699;DHT22;20032;52.436;13.312;2022-11-03T11:55:36;12.40;99.90
33699;DHT22;20032;52.436;13.312;2022-11-03T11:58:02;12.40;99.90
33699;DHT22;20032;52.436;13.312;2022-11-03T12:00:30;12.40;99.90
33699;DHT22;20032;52.436;13.312;2022-11-03T12:02:56;12.40;99.90
33699;DHT22;20032;52.436;13.312;2022-11-03T12:05:23;12.30;99.90
33699;DHT22;20032;52.436;13.312;2022-11-03T12:07:50;12.40;99.90
33699;DHT22;20032;52.436;13.312;2022-11-03T12:10:17;12.40;99.90
33699;DHT22;20032;52.436;13.312;2022-11-03T12:12:43;12.40;99.90
33699;DHT22;20032;52.436;13.312;2022-11-03T12:16:25;12.40;99.90
33699;DHT22;20032;52.436;13.312;2022-11-03T12:17:54;12.40;99.90
33699;DHT22;20032;52.436;13.312;2022-11-03T12:20:42;12.40;99.90
33699;DHT22;20032;52.436;13.312;2022-11-03T12:23:05;12.40;99.90
33699;DHT22;20032;52.436;13.312;2022-11-03T12:25:32;12.40;99.90
33699;DHT22;20032;52.436;13.312;2022-11-03T12:27:58;12.50;99.90
33699;DHT22;20032;52.436;13.312;2022-11-03T12:30:23;12.60;99.90
33699;DHT22;20032;52.436;13.312;2022-11-03T12:32:49;12.60;99.90
33699;DHT22;20032;52.436;13.312;2022-11-03T12:35:15;12.60;99.90
33699;DHT22;20032;52.436;13.312;2022-11-03T12:37:41;12.60;99.90
33699;DHT22;20032;52.436;13.312;2022-11-03T12:40:07;12.60;99.90
33699;DHT22;20032;52.436;13.312;2022-11-03T12:42:32;12.60;99.90
33699;DHT22;20032;52.436;13.312;2022-11-03T12:44:57;12.60;99.90
33699;DHT22;20032;52.436;13.312;2022-11-03T12:47:23;12.70;99.90
33699;DHT22;20032;52.436;13.312;2022-11-03T12:49:49;12.70;99.90
33699;DHT22;20032;52.436;13.312;2022-11-03T12:52:14;12.70;99.90
33699;DHT22;20032;52.436;13.312;2022-11-03T12:54:40;12.70;99.90
33699;DHT22;20032;52.436;13.312;2022-11-03T12:57:06;12.70;99.90
33699;DHT22;20032;52.436;13.312;2022-11-03T12:59:31;12.70;99.90
33699;DHT22;20032;52.436;13.312;2022-11-03T13:01:57;12.70;99.90
33699;DHT22;20032;52.436;13.312;2022-11-03T13:04:22;12.60;99.90
33699;DHT22;20032;52.436;13.312;2022-11-03T13:06:48;12.60;99.90
33699;DHT22;20032;52.436;13.312;2022-11-03T13:09:13;12.60;99.90
33699;DHT22;20032;52.436;13.312;2022-11-03T13:11:39;12.80;99.90
33699;DHT22;20032;52.436;13.312;2022-11-03T13:14:24;12.90;99.90
33699;DHT22;20032;52.436;13.312;2022-11-03T13:16:51;12.90;99.90
33699;DHT22;20032;52.436;13.312;2022-11-03T13:19:16;13.00;99.90
33699;DHT22;20032;52.436;13.312;2022-11-03T13:21:42;13.10;99.90
33699;DHT22;20032;52.436;13.312;2022-11-03T13:24:07;13.10;99.90
33699;DHT22;20032;52.436;13.312;2022-11-03T13:26:32;13.10;99.90
33699;DHT22;20032;52.436;13.312;2022-11-03T13:28:58;13.10;99.90
33699;DHT22;20032;52.436;13.312;2022-11-03T13:31:23;13.10;99.90
33699;DHT22;20032;52.436;13.312;2022-11-03T13:33:49;13.30;99.90
33699;DHT22;20032;52.436;13.312;2022-11-03T13:36:16;13.30;99.90
33699;DHT22;20032;52.436;13.312;2022-11-03T13:38:41;13.30;99.90
33699;DHT22;20032;52.436;13.312;2022-11-03T13:41:07;13.30;99.90
33699;DHT22;20032;52.436;13.312;2022-11-03T13:43:32;13.30;99.90
33699;DHT22;20032;52.436;13.312;2022-11-03T13:45:58;13.30;99.90
33699;DHT22;20032;52.436;13.312;2022-11-03T13:48:26;13.30;99.90
33699;DHT22;20032;52.436;13.312;2022-11-03T13:50:52;13.20;99.90
33699;DHT22;20032;52.436;13.312;2022-11-03T13:53:17;13.20;99.90
33699;DHT22;20032;52.436;13.312;2022-11-03T13:55:43;13.30;99.90
33699;DHT22;20032;52.436;13.312;2022-11-03T13:58:08;13.30;99.90
33699;DHT22;20032;52.436;13.312;2022-11-03T14:00:34;13.20;99.90
33699;DHT22;20032;52.436;13.312;2022-11-03T14:02:59;13.20;99.90
33699;DHT22;20032;52.436;13.312;2022-11-03T14:05:25;13.20;99.90
33699;DHT22;20032;52.436;13.312;2022-11-03T14:07:50;13.20;99.90
33699;DHT22;20032;52.436;13.312;2022-11-03T14:10:15;13.20;99.90
33699;DHT22;20032;52.436;13.312;2022-11-03T14:12:41;13.20;99.90
33699;DHT22;20032;52.436;13.312;2022-11-03T14:15:07;13.20;99.90
33699;DHT22;20032;52.436;13.312;2022-11-03T14:17:33;13.30;99.90
33699;DHT22;20032;52.436;13.312;2022-11-03T14:19:58;13.30;99.90
33699;DHT22;20032;52.436;13.312;2022-11-03T14:22:24;13.20;99.90
33699;DHT22;20032;52.436;13.312;2022-11-03T14:24:50;13.30;99.90
33699;DHT22;20032;52.436;13.312;2022-11-03T14:27:16;13.20;99.90
33699;DHT22;20032;52.436;13.312;2022-11-03T14:29:42;13.10;99.90
33699;DHT22;20032;52.436;13.312;2022-11-03T14:32:08;13.10;99.90
33699;DHT22;20032;52.436;13.312;2022-11-03T14:34:33;13.00;99.90
33699;DHT22;20032;52.436;13.312;2022-11-03T14:36:59;13.00;99.90
33699;DHT22;20032;52.436;13.312;2022-11-03T14:39:24;13.00;99.90
33699;DHT22;20032;52.436;13.312;2022-11-03T14:41:50;13.00;99.90
33699;DHT22;20032;52.436;13.312;2022-11-03T14:44:33;13.00;99.90
33699;DHT22;20032;52.436;13.312;2022-11-03T14:47:00;13.00;99.90
33699;DHT22;20032;52.436;13.312;2022-11-03T14:49:26;12.90;99.90
33699;DHT22;20032;52.436;13.312;2022-11-03T14:51:52;12.80;99.90
33699;DHT22;20032;52.436;13.312;2022-11-03T14:54:17;12.70;99.90
33699;DHT22;20032;52.436;13.312;2022-11-03T14:56:43;12.70;99.90
33699;DHT22;20032;52.436;13.312;2022-11-03T14:59:08;12.70;99.90
33699;DHT22;20032;52.436;13.312;2022-11-03T15:01:34;12.70;99.90
33699;DHT22;20032;52.436;13.312;2022-11-03T15:04:00;12.60;99.90
33699;DHT22;20032;52.436;13.312;2022-11-03T15:06:25;12.60;99.90
33699;DHT22;20032;52.436;13.312;2022-11-03T15:08:51;12.50;99.90
33699;DHT22;20032;52.436;13.312;2022-11-03T15:11:16;12.50;99.90
33699;DHT22;20032;52.436;13.312;2022-11-03T15:13:42;12.40;99.90
33699;DHT22;20032;52.436;13.312;2022-11-03T15:16:07;12.40;99.90
33699;DHT22;20032;52.436;13.312;2022-11-03T15:18:33;12.30;99.90
33699;DHT22;20032;52.436;13.312;2022-11-03T15:20:58;12.30;99.90
33699;DHT22;20032;52.436;13.312;2022-11-03T15:23:23;12.30;99.90
33699;DHT22;20032;52.436;13.312;2022-11-03T15:25:49;12.30;99.90
33699;DHT22;20032;52.436;13.312;2022-11-03T15:28:14;12.20;99.90
33699;DHT22;20032;52.436;13.312;2022-11-03T15:30:40;12.20;99.90
33699;DHT22;20032;52.436;13.312;2022-11-03T15:33:05;12.10;99.90
33699;DHT22;20032;52.436;13.312;2022-11-03T15:35:31;12.00;99.90
33699;DHT22;20032;52.436;13.312;2022-11-03T15:37:56;12.00;99.90
33699;DHT22;20032;52.436;13.312;2022-11-03T15:40:25;11.90;99.90
33699;DHT22;20032;52.436;13.312;2022-11-03T15:42:50;11.90;99.90
33699;DHT22;20032;52.436;13.312;2022-11-03T15:45:16;11.90;99.90
33699;DHT22;20032;52.436;13.312;2022-11-03T15:47:42;11.90;99.90
33699;DHT22;20032;52.436;13.312;2022-11-03T15:50:07;11.90;99.90